sensor_id;sensor_type;location;lat;lon;timestamp;P1;durP1;ratioP1;P2;durP2;ratioP2
21202;SDS011;10759;51.982;9.232;2022-07-22T00:02:00;15.05;;;13.60;;
21202;SDS011;10759;51.982;9.232;2022-07-22T00:04:30;14.75;;;13.60;;
21202;SDS011;10759;51.982;9.232;2022-07-22T00:06:58;15.43;;;14.32;;
21202;SDS011;10759;51.982;9.232;2022-07-22T00:09:26;14.73;;;13.43;;
21202;SDS011;10759;51.982;9.232;2022-07-22T00:11:54;16.10;;;14.90;;
21202;SDS011;10759;51.982;9.232;2022-07-22T00:14:23;16.00;;;14.80;;
21202;SDS011;10759;51.982;9.232;2022-07-22T00:16:51;16.10;;;14.75;;
21202;SDS011;10759;51.982;9.232;2022-07-22T00:19:19;18.60;;;17.10;;
21202;SDS011;10759;51.982;9.232;2022-07-22T00:21:49;19.60;;;18.08;;
21202;SDS011;10759;51.982;9.232;2022-07-22T00:24:18;19.23;;;17.83;;
21202;SDS011;10759;51.982;9.232;2022-07-22T00:26:47;19.95;;;18.25;;
21202;SDS011;10759;51.982;9.232;2022-07-22T00:29:15;19.00;;;17.55;;
21202;SDS011;10759;51.982;9.232;2022-07-22T00:31:43;18.40;;;17.02;;
21202;SDS011;10759;51.982;9.232;2022-07-22T00:34:11;18.52;;;17.00;;
21202;SDS011;10759;51.982;9.232;2022-07-22T00:36:40;19.17;;;17.67;;
21202;SDS011;10759;51.982;9.232;2022-07-22T00:39:09;19.63;;;18.02;;
21202;SDS011;10759;51.982;9.232;2022-07-22T00:41:37;22.38;;;20.73;;
21202;SDS011;10759;51.982;9.232;2022-07-22T00:44:06;19.70;;;18.30;;
21202;SDS011;10759;51.982;9.232;2022-07-22T00:46:36;21.33;;;19.63;;
21202;SDS011;10759;51.982;9.232;2022-07-22T00:49:05;22.77;;;21.05;;
21202;SDS011;10759;51.982;9.232;2022-07-22T00:51:35;22.33;;;20.33;;
21202;SDS011;10759;51.982;9.232;2022-07-22T00:54:06;24.27;;;22.35;;
21202;SDS011;10759;51.982;9.232;2022-07-22T00:56:36;23.70;;;21.55;;
21202;SDS011;10759;51.982;9.232;2022-07-22T00:59:07;21.42;;;19.83;;
21202;SDS011;10759;51.982;9.232;2022-07-22T01:01:37;23.58;;;21.38;;
21202;SDS011;10759;51.982;9.232;2022-07-22T01:04:06;24.20;;;22.05;;
21202;SDS011;10759;51.982;9.232;2022-07-22T01:06:34;21.52;;;19.63;;
21202;SDS011;10759;51.982;9.232;2022-07-22T01:09:03;20.88;;;18.95;;
21202;SDS011;10759;51.982;9.232;2022-07-22T01:11:31;21.60;;;19.63;;
21202;SDS011;10759;51.982;9.232;2022-07-22T01:14:01;21.40;;;19.58;;
21202;SDS011;10759;51.982;9.232;2022-07-22T01:16:29;21.80;;;19.75;;
21202;SDS011;10759;51.982;9.232;2022-07-22T01:18:58;19.45;;;17.75;;
21202;SDS011;10759;51.982;9.232;2022-07-22T01:21:28;19.58;;;17.88;;
21202;SDS011;10759;51.982;9.232;2022-07-22T01:23:56;18.15;;;16.63;;
21202;SDS011;10759;51.982;9.232;2022-07-22T01:26:24;17.02;;;15.68;;
21202;SDS011;10759;51.982;9.232;2022-07-22T01:28:53;16.92;;;15.35;;
21202;SDS011;10759;51.982;9.232;2022-07-22T01:31:21;16.30;;;15.00;;
21202;SDS011;10759;51.982;9.232;2022-07-22T01:33:50;16.27;;;15.07;;
21202;SDS011;10759;51.982;9.232;2022-07-22T01:36:18;13.40;;;12.40;;
21202;SDS011;10759;51.982;9.232;2022-07-22T01:38:47;11.90;;;11.07;;
21202;SDS011;10759;51.982;9.232;2022-07-22T01:41:16;11.10;;;10.40;;
21202;SDS011;10759;51.982;9.232;2022-07-22T01:43:44;11.10;;;10.07;;
21202;SDS011;10759;51.982;9.232;2022-07-22T01:46:13;9.27;;;8.60;;
21202;SDS011;10759;51.982;9.232;2022-07-22T01:48:43;7.32;;;6.82;;
21202;SDS011;10759;51.982;9.232;2022-07-22T01:51:11;6.40;;;6.00;;
21202;SDS011;10759;51.982;9.232;2022-07-22T01:53:40;6.53;;;6.10;;
21202;SDS011;10759;51.982;9.232;2022-07-22T01:56:09;6.93;;;6.43;;
21202;SDS011;10759;51.982;9.232;2022-07-22T01:58:46;8.15;;;7.55;;
21202;SDS011;10759;51.982;9.232;2022-07-22T02:01:19;8.98;;;8.38;;
21202;SDS011;10759;51.982;9.232;2022-07-22T02:03:48;9.05;;;8.27;;
21202;SDS011;10759;51.982;9.232;2022-07-22T02:06:17;9.07;;;8.48;;
21202;SDS011;10759;51.982;9.232;2022-07-22T02:08:45;10.23;;;9.52;;
21202;SDS011;10759;51.982;9.232;2022-07-22T02:11:19;10.13;;;9.27;;
21202;SDS011;10759;51.982;9.232;2022-07-22T02:13:56;9.82;;;9.02;;
21202;SDS011;10759;51.982;9.232;2022-07-22T02:16:27;11.18;;;10.13;;
21202;SDS011;10759;51.982;9.232;2022-07-22T02:18:55;9.93;;;9.23;;
21202;SDS011;10759;51.982;9.232;2022-07-22T02:21:24;10.93;;;10.13;;
21202;SDS011;10759;51.982;9.232;2022-07-22T02:23:57;10.43;;;9.63;;
21202;SDS011;10759;51.982;9.232;2022-07-22T02:26:27;9.73;;;8.73;;
21202;SDS011;10759;51.982;9.232;2022-07-22T02:28:55;6.70;;;6.20;;
21202;SDS011;10759;51.982;9.232;2022-07-22T02:31:24;4.28;;;3.97;;
21202;SDS011;10759;51.982;9.232;2022-07-22T02:33:52;4.18;;;3.88;;
21202;SDS011;10759;51.982;9.232;2022-07-22T02:36:25;4.32;;;3.97;;
21202;SDS011;10759;51.982;9.232;2022-07-22T02:38:56;3.80;;;3.40;;
21202;SDS011;10759;51.982;9.232;2022-07-22T02:41:27;3.70;;;3.40;;
21202;SDS011;10759;51.982;9.232;2022-07-22T02:43:56;3.45;;;3.03;;
21202;SDS011;10759;51.982;9.232;2022-07-22T02:46:26;3.35;;;3.15;;
21202;SDS011;10759;51.982;9.232;2022-07-22T02:49:01;4.13;;;3.25;;
21202;SDS011;10759;51.982;9.232;2022-07-22T02:51:31;3.42;;;2.78;;
21202;SDS011;10759;51.982;9.232;2022-07-22T02:53:59;3.72;;;3.25;;
21202;SDS011;10759;51.982;9.232;2022-07-22T02:56:29;3.50;;;3.20;;
21202;SDS011;10759;51.982;9.232;2022-07-22T02:58:58;3.50;;;3.20;;
21202;SDS011;10759;51.982;9.232;2022-07-22T03:01:26;4.80;;;2.92;;
21202;SDS011;10759;51.982;9.232;2022-07-22T03:03:58;3.20;;;2.90;;
21202;SDS011;10759;51.982;9.232;2022-07-22T03:06:29;3.55;;;2.90;;
21202;SDS011;10759;51.982;9.232;2022-07-22T03:09:10;2.38;;;2.28;;
21202;SDS011;10759;51.982;9.232;2022-07-22T03:11:43;2.10;;;1.90;;
21202;SDS011;10759;51.982;9.232;2022-07-22T03:14:12;2.40;;;2.00;;
21202;SDS011;10759;51.982;9.232;2022-07-22T03:16:40;3.58;;;2.30;;
21202;SDS011;10759;51.982;9.232;2022-07-22T03:19:08;2.30;;;2.08;;
21202;SDS011;10759;51.982;9.232;2022-07-22T03:21:36;2.45;;;2.13;;
21202;SDS011;10759;51.982;9.232;2022-07-22T03:24:06;2.85;;;2.10;;
21202;SDS011;10759;51.982;9.232;2022-07-22T03:26:35;3.47;;;1.90;;
21202;SDS011;10759;51.982;9.232;2022-07-22T03:29:07;1.88;;;1.63;;
21202;SDS011;10759;51.982;9.232;2022-07-22T03:31:36;1.88;;;1.77;;
21202;SDS011;10759;51.982;9.232;2022-07-22T03:34:05;2.10;;;1.90;;
21202;SDS011;10759;51.982;9.232;2022-07-22T03:36:36;1.52;;;1.42;;
21202;SDS011;10759;51.982;9.232;2022-07-22T03:39:06;2.90;;;1.70;;
21202;SDS011;10759;51.982;9.232;2022-07-22T03:41:34;2.95;;;2.00;;
21202;SDS011;10759;51.982;9.232;2022-07-22T03:44:02;2.08;;;1.88;;
21202;SDS011;10759;51.982;9.232;2022-07-22T03:46:32;1.23;;;1.20;;
21202;SDS011;10759;51.982;9.232;2022-07-22T03:49:00;1.20;;;1.10;;
21202;SDS011;10759;51.982;9.232;2022-07-22T03:51:29;3.00;;;1.20;;
21202;SDS011;10759;51.982;9.232;2022-07-22T03:54:00;1.55;;;1.42;;
21202;SDS011;10759;51.982;9.232;2022-07-22T03:56:28;1.27;;;1.17;;
21202;SDS011;10759;51.982;9.232;2022-07-22T03:58:57;0.98;;;0.93;;
21202;SDS011;10759;51.982;9.232;2022-07-22T04:01:28;1.17;;;1.17;;
21202;SDS011;10759;51.982;9.232;2022-07-22T04:03:59;2.15;;;1.00;;
21202;SDS011;10759;51.982;9.232;2022-07-22T04:06:36;2.38;;;0.80;;
21202;SDS011;10759;51.982;9.232;2022-07-22T04:09:15;1.33;;;0.90;;
21202;SDS011;10759;51.982;9.232;2022-07-22T04:11:43;1.80;;;1.00;;
21202;SDS011;10759;51.982;9.232;2022-07-22T04:14:12;2.97;;;1.50;;
21202;SDS011;10759;51.982;9.232;2022-07-22T04:16:43;1.73;;;1.63;;
21202;SDS011;10759;51.982;9.232;2022-07-22T04:19:13;3.03;;;1.73;;
21202;SDS011;10759;51.982;9.232;2022-07-22T04:21:51;1.33;;;1.20;;
21202;SDS011;10759;51.982;9.232;2022-07-22T04:24:21;2.35;;;1.42;;
21202;SDS011;10759;51.982;9.232;2022-07-22T04:26:50;1.25;;;1.10;;
21202;SDS011;10759;51.982;9.232;2022-07-22T04:29:18;2.25;;;1.50;;
21202;SDS011;10759;51.982;9.232;2022-07-22T04:31:46;1.67;;;1.58;;
21202;SDS011;10759;51.982;9.232;2022-07-22T04:34:18;1.30;;;1.20;;
21202;SDS011;10759;51.982;9.232;2022-07-22T04:36:48;2.15;;;1.70;;
21202;SDS011;10759;51.982;9.232;2022-07-22T04:39:17;7.40;;;1.90;;
21202;SDS011;10759;51.982;9.232;2022-07-22T04:41:54;2.72;;;2.53;;
21202;SDS011;10759;51.982;9.232;2022-07-22T04:44:23;2.38;;;2.17;;
21202;SDS011;10759;51.982;9.232;2022-07-22T04:46:51;2.70;;;2.50;;
21202;SDS011;10759;51.982;9.232;2022-07-22T04:49:21;3.72;;;3.30;;
21202;SDS011;10759;51.982;9.232;2022-07-22T04:51:50;3.25;;;2.95;;
21202;SDS011;10759;51.982;9.232;2022-07-22T04:54:29;5.53;;;3.67;;
21202;SDS011;10759;51.982;9.232;2022-07-22T04:56:58;3.67;;;3.38;;
21202;SDS011;10759;51.982;9.232;2022-07-22T04:59:26;5.15;;;3.50;;
21202;SDS011;10759;51.982;9.232;2022-07-22T05:01:55;3.92;;;3.28;;
21202;SDS011;10759;51.982;9.232;2022-07-22T05:04:25;3.22;;;3.00;;
21202;SDS011;10759;51.982;9.232;2022-07-22T05:06:54;4.15;;;3.78;;
21202;SDS011;10759;51.982;9.232;2022-07-22T05:09:22;5.72;;;3.33;;
21202;SDS011;10759;51.982;9.232;2022-07-22T05:11:51;3.80;;;2.90;;
21202;SDS011;10759;51.982;9.232;2022-07-22T05:14:21;3.50;;;3.20;;
21202;SDS011;10759;51.982;9.232;2022-07-22T05:16:49;3.10;;;2.80;;
21202;SDS011;10759;51.982;9.232;2022-07-22T05:19:18;3.90;;;2.97;;
21202;SDS011;10759;51.982;9.232;2022-07-22T05:21:48;3.13;;;2.83;;
21202;SDS011;10759;51.982;9.232;2022-07-22T05:24:16;2.90;;;2.70;;
21202;SDS011;10759;51.982;9.232;2022-07-22T05:26:45;5.18;;;3.17;;
21202;SDS011;10759;51.982;9.232;2022-07-22T05:29:13;4.20;;;2.85;;
21202;SDS011;10759;51.982;9.232;2022-07-22T05:31:41;3.83;;;2.45;;
21202;SDS011;10759;51.982;9.232;2022-07-22T05:34:10;3.92;;;3.33;;
21202;SDS011;10759;51.982;9.232;2022-07-22T05:36:43;3.47;;;2.72;;
21202;SDS011;10759;51.982;9.232;2022-07-22T05:39:14;4.55;;;3.42;;
21202;SDS011;10759;51.982;9.232;2022-07-22T05:41:42;4.85;;;3.65;;
21202;SDS011;10759;51.982;9.232;2022-07-22T05:44:10;5.00;;;3.63;;
21202;SDS011;10759;51.982;9.232;2022-07-22T05:46:38;4.28;;;3.30;;
21202;SDS011;10759;51.982;9.232;2022-07-22T05:49:07;4.80;;;3.03;;
21202;SDS011;10759;51.982;9.232;2022-07-22T05:51:48;3.03;;;2.75;;
21202;SDS011;10759;51.982;9.232;2022-07-22T05:54:18;4.55;;;2.65;;
21202;SDS011;10759;51.982;9.232;2022-07-22T05:56:47;4.88;;;2.78;;
21202;SDS011;10759;51.982;9.232;2022-07-22T05:59:15;4.78;;;3.10;;
21202;SDS011;10759;51.982;9.232;2022-07-22T06:01:43;7.10;;;3.97;;
21202;SDS011;10759;51.982;9.232;2022-07-22T06:04:30;5.25;;;3.30;;
21202;SDS011;10759;51.982;9.232;2022-07-22T06:06:59;3.92;;;3.15;;
21202;SDS011;10759;51.982;9.232;2022-07-22T06:09:29;5.13;;;3.65;;
21202;SDS011;10759;51.982;9.232;2022-07-22T06:11:57;3.63;;;3.33;;
21202;SDS011;10759;51.982;9.232;2022-07-22T06:14:25;5.50;;;3.60;;
21202;SDS011;10759;51.982;9.232;2022-07-22T06:16:53;4.00;;;3.47;;
21202;SDS011;10759;51.982;9.232;2022-07-22T06:19:21;3.55;;;2.72;;
21202;SDS011;10759;51.982;9.232;2022-07-22T06:21:50;4.43;;;3.20;;
21202;SDS011;10759;51.982;9.232;2022-07-22T06:24:18;3.70;;;3.22;;
21202;SDS011;10759;51.982;9.232;2022-07-22T06:26:53;3.25;;;3.05;;
21202;SDS011;10759;51.982;9.232;2022-07-22T06:29:21;3.78;;;3.40;;
21202;SDS011;10759;51.982;9.232;2022-07-22T06:31:49;5.28;;;3.58;;
21202;SDS011;10759;51.982;9.232;2022-07-22T06:34:18;3.78;;;3.47;;
21202;SDS011;10759;51.982;9.232;2022-07-22T06:36:57;4.25;;;3.95;;
21202;SDS011;10759;51.982;9.232;2022-07-22T06:39:26;4.07;;;3.58;;
21202;SDS011;10759;51.982;9.232;2022-07-22T06:42:17;4.20;;;3.47;;
21202;SDS011;10759;51.982;9.232;2022-07-22T06:44:48;4.32;;;3.67;;
21202;SDS011;10759;51.982;9.232;2022-07-22T06:47:35;4.47;;;4.05;;
21202;SDS011;10759;51.982;9.232;2022-07-22T06:52:40;4.22;;;3.88;;
21202;SDS011;10759;51.982;9.232;2022-07-22T06:55:09;4.47;;;4.07;;
21202;SDS011;10759;51.982;9.232;2022-07-22T06:57:44;5.72;;;4.40;;
21202;SDS011;10759;51.982;9.232;2022-07-22T07:03:01;5.38;;;4.80;;
21202;SDS011;10759;51.982;9.232;2022-07-22T07:05:50;5.07;;;4.53;;
21202;SDS011;10759;51.982;9.232;2022-07-22T07:08:19;6.25;;;4.13;;
21202;SDS011;10759;51.982;9.232;2022-07-22T07:10:47;4.55;;;4.03;;
21202;SDS011;10759;51.982;9.232;2022-07-22T07:13:18;5.10;;;4.10;;
21202;SDS011;10759;51.982;9.232;2022-07-22T07:15:47;5.00;;;3.90;;
21202;SDS011;10759;51.982;9.232;2022-07-22T07:18:15;5.28;;;4.07;;
21202;SDS011;10759;51.982;9.232;2022-07-22T07:20:44;5.50;;;4.53;;
21202;SDS011;10759;51.982;9.232;2022-07-22T07:23:12;4.70;;;4.25;;
21202;SDS011;10759;51.982;9.232;2022-07-22T07:25:44;7.68;;;4.25;;
21202;SDS011;10759;51.982;9.232;2022-07-22T07:28:12;5.20;;;4.70;;
21202;SDS011;10759;51.982;9.232;2022-07-22T07:30:50;6.15;;;4.63;;
21202;SDS011;10759;51.982;9.232;2022-07-22T07:33:20;5.78;;;4.50;;
21202;SDS011;10759;51.982;9.232;2022-07-22T07:35:49;5.75;;;4.60;;
21202;SDS011;10759;51.982;9.232;2022-07-22T07:38:24;5.40;;;4.90;;
21202;SDS011;10759;51.982;9.232;2022-07-22T07:40:52;5.43;;;4.90;;
21202;SDS011;10759;51.982;9.232;2022-07-22T07:43:21;4.88;;;4.40;;
21202;SDS011;10759;51.982;9.232;2022-07-22T07:45:51;5.30;;;4.35;;
21202;SDS011;10759;51.982;9.232;2022-07-22T07:48:19;5.28;;;4.68;;
21202;SDS011;10759;51.982;9.232;2022-07-22T07:50:48;5.28;;;4.78;;
21202;SDS011;10759;51.982;9.232;2022-07-22T07:53:16;5.25;;;4.72;;
21202;SDS011;10759;51.982;9.232;2022-07-22T07:55:46;5.35;;;4.38;;
21202;SDS011;10759;51.982;9.232;2022-07-22T07:58:16;5.55;;;4.95;;
21202;SDS011;10759;51.982;9.232;2022-07-22T08:00:44;5.55;;;4.40;;
21202;SDS011;10759;51.982;9.232;2022-07-22T08:03:14;7.05;;;4.38;;
21202;SDS011;10759;51.982;9.232;2022-07-22T08:08:18;5.05;;;4.55;;
21202;SDS011;10759;51.982;9.232;2022-07-22T08:10:48;6.57;;;4.32;;
21202;SDS011;10759;51.982;9.232;2022-07-22T08:13:58;5.00;;;4.50;;
21202;SDS011;10759;51.982;9.232;2022-07-22T08:16:49;5.22;;;4.60;;
21202;SDS011;10759;51.982;9.232;2022-07-22T08:19:19;5.18;;;4.10;;
21202;SDS011;10759;51.982;9.232;2022-07-22T08:21:47;5.60;;;4.90;;
21202;SDS011;10759;51.982;9.232;2022-07-22T08:24:23;6.00;;;4.75;;
21202;SDS011;10759;51.982;9.232;2022-07-22T08:26:52;6.13;;;5.15;;
21202;SDS011;10759;51.982;9.232;2022-07-22T08:29:20;6.90;;;4.15;;
21202;SDS011;10759;51.982;9.232;2022-07-22T08:31:48;4.60;;;4.10;;
21202;SDS011;10759;51.982;9.232;2022-07-22T08:34:20;8.23;;;4.57;;
21202;SDS011;10759;51.982;9.232;2022-07-22T08:36:50;5.55;;;3.45;;
21202;SDS011;10759;51.982;9.232;2022-07-22T08:39:18;4.30;;;3.90;;
21202;SDS011;10759;51.982;9.232;2022-07-22T08:41:50;4.60;;;4.10;;
21202;SDS011;10759;51.982;9.232;2022-07-22T08:44:18;4.38;;;4.03;;
21202;SDS011;10759;51.982;9.232;2022-07-22T08:46:48;7.13;;;4.30;;
21202;SDS011;10759;51.982;9.232;2022-07-22T08:49:20;6.85;;;4.65;;
21202;SDS011;10759;51.982;9.232;2022-07-22T08:52:13;5.28;;;4.25;;
21202;SDS011;10759;51.982;9.232;2022-07-22T08:54:46;5.15;;;4.10;;
21202;SDS011;10759;51.982;9.232;2022-07-22T08:57:16;5.00;;;4.20;;
21202;SDS011;10759;51.982;9.232;2022-07-22T08:59:48;4.68;;;3.92;;
21202;SDS011;10759;51.982;9.232;2022-07-22T09:02:17;5.30;;;4.80;;
21202;SDS011;10759;51.982;9.232;2022-07-22T09:04:52;5.80;;;4.93;;
21202;SDS011;10759;51.982;9.232;2022-07-22T09:07:23;6.43;;;4.57;;
21202;SDS011;10759;51.982;9.232;2022-07-22T09:10:03;5.05;;;4.43;;
21202;SDS011;10759;51.982;9.232;2022-07-22T09:12:52;6.55;;;3.75;;
21202;SDS011;10759;51.982;9.232;2022-07-22T09:15:45;5.07;;;4.03;;
21202;SDS011;10759;51.982;9.232;2022-07-22T09:18:43;5.82;;;4.72;;
21202;SDS011;10759;51.982;9.232;2022-07-22T09:21:32;4.97;;;3.72;;
21202;SDS011;10759;51.982;9.232;2022-07-22T09:24:25;4.50;;;4.10;;
21202;SDS011;10759;51.982;9.232;2022-07-22T09:27:01;4.63;;;4.13;;
21202;SDS011;10759;51.982;9.232;2022-07-22T09:29:35;4.10;;;3.70;;
21202;SDS011;10759;51.982;9.232;2022-07-22T09:32:14;5.00;;;4.47;;
21202;SDS011;10759;51.982;9.232;2022-07-22T09:35:05;4.47;;;4.07;;
21202;SDS011;10759;51.982;9.232;2022-07-22T09:37:51;4.45;;;4.05;;
21202;SDS011;10759;51.982;9.232;2022-07-22T09:40:22;4.85;;;3.85;;
21202;SDS011;10759;51.982;9.232;2022-07-22T09:42:52;3.53;;;3.22;;
21202;SDS011;10759;51.982;9.232;2022-07-22T09:45:23;3.95;;;3.60;;
21202;SDS011;10759;51.982;9.232;2022-07-22T09:47:54;4.15;;;3.75;;
21202;SDS011;10759;51.982;9.232;2022-07-22T09:50:50;3.30;;;3.10;;
21202;SDS011;10759;51.982;9.232;2022-07-22T09:53:29;3.47;;;3.17;;
21202;SDS011;10759;51.982;9.232;2022-07-22T09:56:21;3.20;;;2.90;;
21202;SDS011;10759;51.982;9.232;2022-07-22T09:58:51;3.72;;;2.85;;
21202;SDS011;10759;51.982;9.232;2022-07-22T10:01:27;4.82;;;3.33;;
21202;SDS011;10759;51.982;9.232;2022-07-22T10:03:56;3.78;;;2.75;;
21202;SDS011;10759;51.982;9.232;2022-07-22T10:06:25;4.57;;;3.50;;
21202;SDS011;10759;51.982;9.232;2022-07-22T10:08:55;7.13;;;3.40;;
21202;SDS011;10759;51.982;9.232;2022-07-22T10:11:35;11.15;;;5.28;;
21202;SDS011;10759;51.982;9.232;2022-07-22T10:14:05;5.20;;;3.97;;
21202;SDS011;10759;51.982;9.232;2022-07-22T10:16:35;4.55;;;3.55;;
21202;SDS011;10759;51.982;9.232;2022-07-22T10:19:04;3.92;;;3.13;;
21202;SDS011;10759;51.982;9.232;2022-07-22T10:21:33;4.20;;;3.58;;
21202;SDS011;10759;51.982;9.232;2022-07-22T10:24:08;5.20;;;3.55;;
21202;SDS011;10759;51.982;9.232;2022-07-22T10:26:48;3.35;;;3.05;;
21202;SDS011;10759;51.982;9.232;2022-07-22T10:29:24;4.10;;;3.15;;
21202;SDS011;10759;51.982;9.232;2022-07-22T10:32:19;3.35;;;2.75;;
21202;SDS011;10759;51.982;9.232;2022-07-22T10:37:51;5.40;;;2.75;;
21202;SDS011;10759;51.982;9.232;2022-07-22T10:40:24;6.25;;;2.65;;
21202;SDS011;10759;51.982;9.232;2022-07-22T10:43:05;3.95;;;2.97;;
21202;SDS011;10759;51.982;9.232;2022-07-22T10:45:41;2.88;;;2.58;;
21202;SDS011;10759;51.982;9.232;2022-07-22T10:48:13;2.60;;;2.40;;
21202;SDS011;10759;51.982;9.232;2022-07-22T10:50:44;3.70;;;2.63;;
21202;SDS011;10759;51.982;9.232;2022-07-22T10:53:17;5.03;;;2.10;;
21202;SDS011;10759;51.982;9.232;2022-07-22T10:55:58;2.88;;;2.20;;
21202;SDS011;10759;51.982;9.232;2022-07-22T10:58:43;4.20;;;2.28;;
21202;SDS011;10759;51.982;9.232;2022-07-22T11:01:20;3.80;;;2.60;;
21202;SDS011;10759;51.982;9.232;2022-07-22T11:03:51;3.08;;;1.95;;
21202;SDS011;10759;51.982;9.232;2022-07-22T11:06:20;2.92;;;2.38;;
21202;SDS011;10759;51.982;9.232;2022-07-22T11:08:51;2.38;;;2.28;;
21202;SDS011;10759;51.982;9.232;2022-07-22T11:14:13;4.57;;;2.20;;
21202;SDS011;10759;51.982;9.232;2022-07-22T11:16:44;2.70;;;2.50;;
21202;SDS011;10759;51.982;9.232;2022-07-22T11:21:42;3.17;;;2.95;;
21202;SDS011;10759;51.982;9.232;2022-07-22T11:24:16;3.03;;;2.70;;
21202;SDS011;10759;51.982;9.232;2022-07-22T11:26:48;3.33;;;3.08;;
21202;SDS011;10759;51.982;9.232;2022-07-22T11:29:18;3.30;;;3.10;;
21202;SDS011;10759;51.982;9.232;2022-07-22T11:31:52;2.42;;;2.33;;
21202;SDS011;10759;51.982;9.232;2022-07-22T11:34:20;2.42;;;2.00;;
21202;SDS011;10759;51.982;9.232;2022-07-22T11:36:49;2.60;;;2.40;;
21202;SDS011;10759;51.982;9.232;2022-07-22T11:39:19;2.55;;;2.17;;
21202;SDS011;10759;51.982;9.232;2022-07-22T11:41:51;1.83;;;1.70;;
21202;SDS011;10759;51.982;9.232;2022-07-22T11:44:20;1.90;;;1.80;;
21202;SDS011;10759;51.982;9.232;2022-07-22T11:46:49;1.73;;;1.60;;
21202;SDS011;10759;51.982;9.232;2022-07-22T11:49:18;1.60;;;1.50;;
21202;SDS011;10759;51.982;9.232;2022-07-22T11:51:47;2.55;;;1.77;;
21202;SDS011;10759;51.982;9.232;2022-07-22T11:54:16;2.20;;;1.50;;
21202;SDS011;10759;51.982;9.232;2022-07-22T11:56:44;2.67;;;1.50;;
21202;SDS011;10759;51.982;9.232;2022-07-22T11:59:14;2.15;;;1.65;;
21202;SDS011;10759;51.982;9.232;2022-07-22T12:01:45;2.95;;;2.35;;
21202;SDS011;10759;51.982;9.232;2022-07-22T12:06:46;3.40;;;2.88;;
21202;SDS011;10759;51.982;9.232;2022-07-22T12:09:15;2.53;;;2.30;;
21202;SDS011;10759;51.982;9.232;2022-07-22T12:11:50;2.45;;;1.88;;
21202;SDS011;10759;51.982;9.232;2022-07-22T12:14:23;2.50;;;2.00;;
21202;SDS011;10759;51.982;9.232;2022-07-22T12:16:53;3.03;;;2.78;;
21202;SDS011;10759;51.982;9.232;2022-07-22T12:19:23;3.88;;;2.85;;
21202;SDS011;10759;51.982;9.232;2022-07-22T12:21:55;4.32;;;2.33;;
21202;SDS011;10759;51.982;9.232;2022-07-22T12:24:26;2.38;;;2.17;;
21202;SDS011;10759;51.982;9.232;2022-07-22T12:26:57;2.15;;;1.92;;
21202;SDS011;10759;51.982;9.232;2022-07-22T12:29:28;2.70;;;2.13;;
21202;SDS011;10759;51.982;9.232;2022-07-22T12:31:58;4.45;;;2.70;;
21202;SDS011;10759;51.982;9.232;2022-07-22T12:34:28;3.38;;;2.92;;
21202;SDS011;10759;51.982;9.232;2022-07-22T12:37:10;4.60;;;3.40;;
21202;SDS011;10759;51.982;9.232;2022-07-22T12:39:53;3.63;;;3.28;;
21202;SDS011;10759;51.982;9.232;2022-07-22T12:42:23;4.97;;;4.57;;
21202;SDS011;10759;51.982;9.232;2022-07-22T12:44:58;6.23;;;5.60;;
21202;SDS011;10759;51.982;9.232;2022-07-22T12:47:37;6.13;;;5.30;;
21202;SDS011;10759;51.982;9.232;2022-07-22T12:50:15;8.07;;;5.82;;
21202;SDS011;10759;51.982;9.232;2022-07-22T12:52:44;7.00;;;5.82;;
21202;SDS011;10759;51.982;9.232;2022-07-22T12:55:34;10.82;;;7.15;;
21202;SDS011;10759;51.982;9.232;2022-07-22T12:58:03;9.27;;;6.45;;
21202;SDS011;10759;51.982;9.232;2022-07-22T13:00:34;8.55;;;6.38;;
21202;SDS011;10759;51.982;9.232;2022-07-22T13:03:04;8.77;;;6.03;;
21202;SDS011;10759;51.982;9.232;2022-07-22T13:05:33;7.85;;;5.10;;
21202;SDS011;10759;51.982;9.232;2022-07-22T13:08:02;7.82;;;5.18;;
21202;SDS011;10759;51.982;9.232;2022-07-22T13:10:34;8.15;;;5.70;;
21202;SDS011;10759;51.982;9.232;2022-07-22T13:13:05;7.18;;;6.47;;
21202;SDS011;10759;51.982;9.232;2022-07-22T13:15:35;7.55;;;5.78;;
21202;SDS011;10759;51.982;9.232;2022-07-22T13:18:04;9.45;;;6.00;;
21202;SDS011;10759;51.982;9.232;2022-07-22T13:20:32;6.95;;;5.63;;
21202;SDS011;10759;51.982;9.232;2022-07-22T13:23:00;6.32;;;5.68;;
21202;SDS011;10759;51.982;9.232;2022-07-22T13:25:28;5.95;;;5.45;;
21202;SDS011;10759;51.982;9.232;2022-07-22T13:27:57;7.72;;;6.80;;
21202;SDS011;10759;51.982;9.232;2022-07-22T13:30:25;7.70;;;6.95;;
21202;SDS011;10759;51.982;9.232;2022-07-22T13:32:55;8.50;;;5.93;;
21202;SDS011;10759;51.982;9.232;2022-07-22T13:35:23;6.60;;;5.97;;
21202;SDS011;10759;51.982;9.232;2022-07-22T13:37:51;9.02;;;6.28;;
21202;SDS011;10759;51.982;9.232;2022-07-22T13:40:19;9.25;;;6.55;;
21202;SDS011;10759;51.982;9.232;2022-07-22T13:42:47;7.80;;;6.95;;
21202;SDS011;10759;51.982;9.232;2022-07-22T13:45:15;10.98;;;8.07;;
21202;SDS011;10759;51.982;9.232;2022-07-22T13:47:44;7.90;;;6.57;;
21202;SDS011;10759;51.982;9.232;2022-07-22T13:50:13;8.02;;;7.28;;
21202;SDS011;10759;51.982;9.232;2022-07-22T13:52:42;7.32;;;6.63;;
21202;SDS011;10759;51.982;9.232;2022-07-22T13:55:13;7.55;;;6.47;;
21202;SDS011;10759;51.982;9.232;2022-07-22T13:57:43;8.02;;;6.68;;
21202;SDS011;10759;51.982;9.232;2022-07-22T14:00:11;7.85;;;6.32;;
21202;SDS011;10759;51.982;9.232;2022-07-22T14:02:41;8.25;;;6.57;;
21202;SDS011;10759;51.982;9.232;2022-07-22T14:05:13;7.60;;;6.55;;
21202;SDS011;10759;51.982;9.232;2022-07-22T14:07:41;7.80;;;7.18;;
21202;SDS011;10759;51.982;9.232;2022-07-22T14:10:09;9.32;;;7.15;;
21202;SDS011;10759;51.982;9.232;2022-07-22T14:12:38;8.38;;;6.68;;
21202;SDS011;10759;51.982;9.232;2022-07-22T14:15:07;7.45;;;6.68;;
21202;SDS011;10759;51.982;9.232;2022-07-22T14:17:36;8.25;;;6.60;;
21202;SDS011;10759;51.982;9.232;2022-07-22T14:20:06;8.57;;;6.75;;
21202;SDS011;10759;51.982;9.232;2022-07-22T14:22:36;8.55;;;7.63;;
21202;SDS011;10759;51.982;9.232;2022-07-22T14:25:04;7.60;;;6.90;;
21202;SDS011;10759;51.982;9.232;2022-07-22T14:27:34;7.70;;;6.90;;
21202;SDS011;10759;51.982;9.232;2022-07-22T14:30:02;8.95;;;8.00;;
21202;SDS011;10759;51.982;9.232;2022-07-22T14:32:31;9.43;;;8.02;;
21202;SDS011;10759;51.982;9.232;2022-07-22T14:34:59;10.52;;;8.20;;
21202;SDS011;10759;51.982;9.232;2022-07-22T14:37:28;9.30;;;7.13;;
21202;SDS011;10759;51.982;9.232;2022-07-22T14:39:58;8.70;;;7.78;;
21202;SDS011;10759;51.982;9.232;2022-07-22T14:42:26;8.25;;;7.35;;
21202;SDS011;10759;51.982;9.232;2022-07-22T14:44:54;8.82;;;7.43;;
21202;SDS011;10759;51.982;9.232;2022-07-22T14:47:22;8.15;;;7.32;;
21202;SDS011;10759;51.982;9.232;2022-07-22T14:49:51;8.90;;;7.40;;
21202;SDS011;10759;51.982;9.232;2022-07-22T14:52:19;13.30;;;6.15;;
21202;SDS011;10759;51.982;9.232;2022-07-22T14:54:47;8.35;;;7.45;;
21202;SDS011;10759;51.982;9.232;2022-07-22T14:57:17;8.15;;;7.28;;
21202;SDS011;10759;51.982;9.232;2022-07-22T14:59:45;8.52;;;7.65;;
21202;SDS011;10759;51.982;9.232;2022-07-22T15:02:13;9.35;;;8.50;;
21202;SDS011;10759;51.982;9.232;2022-07-22T15:04:41;13.93;;;9.05;;
21202;SDS011;10759;51.982;9.232;2022-07-22T15:07:09;9.02;;;8.10;;
21202;SDS011;10759;51.982;9.232;2022-07-22T15:09:37;9.32;;;8.45;;
21202;SDS011;10759;51.982;9.232;2022-07-22T15:12:06;8.57;;;7.63;;
21202;SDS011;10759;51.982;9.232;2022-07-22T15:14:56;7.50;;;6.80;;
21202;SDS011;10759;51.982;9.232;2022-07-22T15:17:24;11.50;;;8.37;;
21202;SDS011;10759;51.982;9.232;2022-07-22T15:19:52;8.95;;;7.95;;
21202;SDS011;10759;51.982;9.232;2022-07-22T15:22:21;9.55;;;7.35;;
21202;SDS011;10759;51.982;9.232;2022-07-22T15:24:51;11.38;;;7.97;;
21202;SDS011;10759;51.982;9.232;2022-07-22T15:27:19;8.10;;;7.30;;